Foggia / Gino Lisa Airport LIBF

Flugplatz Daten

Name: Foggia / Gino Lisa Airport

Ident: LIBF

Lat: 41,43289948

Long: 15,53499985

Platzhöhe: 265 ft

IataCode: FOG

City: Foggia

Metar

2021/12/03 14:50
LIBF 031450Z 30007KT 9999 -DZ BKN030 10/10 Q1006

Taf

2021/12/03 12:00
TAF LIBF 031100Z 0312/0412 30012KT 9999 SCT040
TEMPO 0312/0321 RA
Gewünschte Webcam nicht vorhanden? Dann fügen Sie eine hinzu. Sie wird dann so schnell wie möglich freigeschaltet
Url: Title: